Terminal Aerodrome Forecast
Issued by NWS

Home | Current Version | Previous Version | Text Only | Print | Product List | Glossary On
Versions: 1 2 3 4 5 6 7 8 9 10 11 12 13 14 15 16
112
FTUS41 KBGM 240925 AAA
TAFRME
TAF AMD
KRME 240925Z 2409/2506 28008KT P6SM SCT015 OVC025
      TEMPO 2409/2412 4SM -SHRA BR OVC015
     FM241300 28010KT P6SM SCT050
     FM250100 VRB03KT P6SM SCT150=

USA.gov is the U.S. government's official web portal to all federal, state and local government web resources and services.